VLG412U EGPH-LEBL
Flight info
| Callsign | VLG412U |
|---|---|
| Flight time | N/A |
| Altitude | 35000 |
| Route | GOSAM P600 FENIK L612 NAVSO DCT AKOMU DCT VAMEB UL612 HON DCT SITET UN859 SOPIL DCT BALAN DCT EVPOK DCT NARAK DCT GAI DCT LOMRA DCT ROCAN DCT PUMAL |
| Aircraft | A321/M-SDFGHILORVWXY/LB1 |
Departure
| Time | 2026-04-22 11:00 |
|---|---|
| Airport | Edinburgh Airport (EGPH) |
Arrival
| Time | N/A |
|---|---|
| Airport | Josep Tarradellas Barcelona-El Prat Airport (LEBL) |
| Time | Latitude | Longitude | Altitude | Speed | Heading |
|---|---|---|---|---|---|
| 2026-04-22 10:32 | 55.94943 | -3.36359 | 117 ft | 0 kts | 148° |
| 2026-04-22 10:51 | 55.94949 | -3.36366 | 113 ft | 2 kts | 149° |
| 2026-04-22 10:51 | 55.94966 | -3.36384 | 113 ft | 3 kts | 149° |
| 2026-04-22 10:52 | 55.94980 | -3.36400 | 113 ft | 2 kts | 150° |
| 2026-04-22 10:52 | 55.94997 | -3.36412 | 113 ft | 3 kts | 187° |
| 2026-04-22 10:52 | 55.95012 | -3.36400 | 115 ft | 3 kts | 232° |
| 2026-04-22 10:52 | 55.95021 | -3.36377 | 113 ft | 1 kts | 239° |
| 2026-04-22 10:53 | 55.95023 | -3.36371 | 113 ft | 0 kts | 239° |
| 2026-04-22 10:55 | 55.95019 | -3.36381 | 116 ft | 2 kts | 238° |
| 2026-04-22 10:55 | 55.95008 | -3.36412 | 113 ft | 4 kts | 237° |
| 2026-04-22 10:55 | 55.94990 | -3.36463 | 115 ft | 6 kts | 238° |
| 2026-04-22 10:55 | 55.94967 | -3.36534 | 114 ft | 8 kts | 239° |
| 2026-04-22 10:56 | 55.94938 | -3.36623 | 115 ft | 9 kts | 239° |
| 2026-04-22 10:56 | 55.94903 | -3.36727 | 113 ft | 10 kts | 242° |
| 2026-04-22 10:56 | 55.94910 | -3.36806 | 116 ft | 10 kts | 301° |
| 2026-04-22 10:56 | 55.94916 | -3.36928 | 116 ft | 12 kts | 245° |
| 2026-04-22 10:57 | 55.94863 | -3.37083 | 115 ft | 17 kts | 238° |
| 2026-04-22 10:57 | 55.94797 | -3.37277 | 115 ft | 21 kts | 238° |
| 2026-04-22 10:57 | 55.94720 | -3.37504 | 114 ft | 22 kts | 239° |
| 2026-04-22 10:57 | 55.94640 | -3.37737 | 113 ft | 23 kts | 238° |
| 2026-04-22 10:58 | 55.94564 | -3.37964 | 113 ft | 20 kts | 240° |
| 2026-04-22 10:58 | 55.94492 | -3.38172 | 114 ft | 20 kts | 240° |
| 2026-04-22 10:58 | 55.94421 | -3.38386 | 114 ft | 19 kts | 238° |
| 2026-04-22 10:58 | 55.94347 | -3.38605 | 114 ft | 23 kts | 239° |
| 2026-04-22 10:59 | 55.94292 | -3.38824 | 116 ft | 13 kts | 300° |
| 2026-04-22 10:59 | 55.94350 | -3.38921 | 114 ft | 12 kts | 327° |
| 2026-04-22 10:59 | 55.94430 | -3.38915 | 113 ft | 12 kts | 40° |
| 2026-04-22 10:59 | 55.94502 | -3.38716 | 113 ft | 42 kts | 59° |
| 2026-04-22 11:00 | 55.94782 | -3.37888 | 114 ft | 111 kts | 59° |
| 2026-04-22 11:00 | 55.95277 | -3.36418 | 214 ft | 156 kts | 61° |
| 2026-04-22 11:00 | 55.95865 | -3.34793 | 1012 ft | 153 kts | 56° |
| 2026-04-22 11:00 | 55.96612 | -3.33471 | 1680 ft | 157 kts | 37° |
| 2026-04-22 11:01 | 55.97586 | -3.32425 | 2139 ft | 168 kts | 33° |
| 2026-04-22 11:01 | 55.98746 | -3.31739 | 2476 ft | 191 kts | 2° |
| 2026-04-22 11:01 | 56.00003 | -3.32843 | 2721 ft | 223 kts | 314° |
| 2026-04-22 11:01 | 56.00742 | -3.35458 | 2997 ft | 248 kts | 289° |
| 2026-04-22 11:02 | 56.01197 | -3.38595 | 3455 ft | 268 kts | 284° |
| 2026-04-22 11:02 | 56.01553 | -3.41906 | 4133 ft | 277 kts | 274° |
| 2026-04-22 11:02 | 56.01486 | -3.45353 | 4942 ft | 278 kts | 259° |
| 2026-04-22 11:02 | 56.01052 | -3.48714 | 5700 ft | 280 kts | 251° |
| 2026-04-22 11:03 | 56.00539 | -3.52093 | 5919 ft | 282 kts | 252° |
| 2026-04-22 11:03 | 56.00054 | -3.55495 | 5982 ft | 282 kts | 252° |
| 2026-04-22 11:03 | 55.99580 | -3.58901 | 5983 ft | 283 kts | 252° |
| 2026-04-22 11:03 | 55.99108 | -3.62304 | 5984 ft | 282 kts | 253° |
| 2026-04-22 11:04 | 55.98635 | -3.65694 | 5980 ft | 281 kts | 253° |
| 2026-04-22 11:04 | 55.98159 | -3.69071 | 5977 ft | 279 kts | 252° |
| 2026-04-22 11:04 | 55.97679 | -3.72445 | 5983 ft | 281 kts | 252° |
| 2026-04-22 11:04 | 55.97196 | -3.75819 | 5970 ft | 281 kts | 252° |
| 2026-04-22 11:05 | 55.96694 | -3.79203 | 5976 ft | 281 kts | 248° |
| 2026-04-22 11:05 | 55.95780 | -3.82209 | 5975 ft | 274 kts | 226° |
| 2026-04-22 11:05 | 55.94585 | -3.84911 | 5974 ft | 274 kts | 228° |
| 2026-04-22 11:05 | 55.93402 | -3.87578 | 5972 ft | 273 kts | 227° |
| 2026-04-22 11:06 | 55.92222 | -3.90238 | 5964 ft | 273 kts | 227° |
| 2026-04-22 11:06 | 55.91039 | -3.92895 | 5970 ft | 274 kts | 227° |
| 2026-04-22 11:06 | 55.89854 | -3.95547 | 5974 ft | 274 kts | 227° |
| 2026-04-22 11:06 | 55.88667 | -3.98193 | 5977 ft | 273 kts | 228° |
| 2026-04-22 11:07 | 55.87482 | -4.00837 | 5977 ft | 273 kts | 229° |
| 2026-04-22 11:07 | 55.86293 | -4.03494 | 5979 ft | 274 kts | 229° |
| 2026-04-22 11:07 | 55.85106 | -4.06149 | 5973 ft | 274 kts | 226° |
| 2026-04-22 11:07 | 55.83918 | -4.08802 | 5971 ft | 273 kts | 229° |
| 2026-04-22 11:08 | 55.82733 | -4.11441 | 5973 ft | 274 kts | 229° |
| 2026-04-22 11:08 | 55.81543 | -4.14090 | 5979 ft | 273 kts | 227° |
| 2026-04-22 11:08 | 55.80354 | -4.16733 | 5976 ft | 274 kts | 227° |
| 2026-04-22 11:08 | 55.79148 | -4.19348 | 5977 ft | 272 kts | 221° |
| 2026-04-22 11:09 | 55.77687 | -4.21513 | 6149 ft | 272 kts | 210° |
| 2026-04-22 11:09 | 55.76149 | -4.23396 | 6974 ft | 273 kts | 211° |
| 2026-04-22 11:09 | 55.74567 | -4.25359 | 7734 ft | 275 kts | 211° |
| 2026-04-22 11:09 | 55.72876 | -4.26893 | 8475 ft | 272 kts | 193° |
| 2026-04-22 11:10 | 55.71024 | -4.27377 | 9233 ft | 269 kts | 174° |
| 2026-04-22 11:10 | 55.69212 | -4.26782 | 10079 ft | 263 kts | 157° |
| 2026-04-22 11:10 | 55.67579 | -4.25330 | 10774 ft | 266 kts | 149° |
| 2026-04-22 11:10 | 55.65900 | -4.23657 | 10974 ft | 289 kts | 149° |
| 2026-04-22 11:11 | 55.64076 | -4.21856 | 11154 ft | 309 kts | 149° |
| 2026-04-22 11:11 | 55.62170 | -4.19981 | 11675 ft | 317 kts | 150° |
| 2026-04-22 11:11 | 55.60228 | -4.18077 | 12334 ft | 320 kts | 150° |
| 2026-04-22 11:11 | 55.58271 | -4.16164 | 13005 ft | 323 kts | 150° |
| 2026-04-22 11:12 | 55.56295 | -4.14236 | 13671 ft | 326 kts | 151° |
| 2026-04-22 11:12 | 55.54293 | -4.12288 | 14277 ft | 332 kts | 151° |
| 2026-04-22 11:12 | 55.52253 | -4.10306 | 14844 ft | 336 kts | 151° |
| 2026-04-22 11:12 | 55.50188 | -4.08299 | 15380 ft | 341 kts | 151° |
| 2026-04-22 11:13 | 55.48113 | -4.06283 | 16082 ft | 341 kts | 151° |
| 2026-04-22 11:13 | 55.46017 | -4.04248 | 16632 ft | 347 kts | 151° |
| 2026-04-22 11:13 | 55.43888 | -4.02182 | 17156 ft | 352 kts | 151° |
| 2026-04-22 11:13 | 55.41728 | -4.00090 | 17779 ft | 355 kts | 151° |
| 2026-04-22 11:14 | 55.39558 | -3.97990 | 18373 ft | 359 kts | 152° |
| 2026-04-22 11:14 | 55.37332 | -3.95838 | 19034 ft | 360 kts | 152° |
| 2026-04-22 11:14 | 55.35128 | -3.93712 | 19504 ft | 365 kts | 152° |
| 2026-04-22 11:14 | 55.32892 | -3.91557 | 20026 ft | 367 kts | 153° |
| 2026-04-22 11:15 | 55.30632 | -3.89378 | 20408 ft | 375 kts | 152° |
| 2026-04-22 11:15 | 55.28326 | -3.87159 | 20796 ft | 381 kts | 152° |
| 2026-04-22 11:15 | 55.25985 | -3.84913 | 21278 ft | 385 kts | 152° |
| 2026-04-22 11:15 | 55.23622 | -3.82650 | 21797 ft | 389 kts | 152° |
| 2026-04-22 11:16 | 55.21230 | -3.80384 | 22286 ft | 392 kts | 154° |
| 2026-04-22 11:16 | 55.18787 | -3.78194 | 22663 ft | 399 kts | 155° |
| 2026-04-22 11:16 | 55.16277 | -3.76038 | 23007 ft | 405 kts | 156° |
| 2026-04-22 11:16 | 55.13720 | -3.73888 | 23388 ft | 411 kts | 156° |
| 2026-04-22 11:17 | 55.11126 | -3.71719 | 23802 ft | 415 kts | 156° |
| 2026-04-22 11:17 | 55.08512 | -3.69518 | 24179 ft | 419 kts | 157° |
| 2026-04-22 11:17 | 55.05879 | -3.67283 | 24497 ft | 423 kts | 156° |
| 2026-04-22 11:17 | 55.03218 | -3.65013 | 24853 ft | 427 kts | 156° |
| 2026-04-22 11:18 | 55.00506 | -3.62695 | 25213 ft | 430 kts | 156° |
| 2026-04-22 11:18 | 54.97850 | -3.60425 | 25561 ft | 433 kts | 156° |
| 2026-04-22 11:18 | 54.95102 | -3.58080 | 25898 ft | 436 kts | 157° |
| 2026-04-22 11:18 | 54.92359 | -3.55746 | 26150 ft | 442 kts | 157° |
| 2026-04-22 11:19 | 54.89591 | -3.53398 | 26461 ft | 445 kts | 157° |
| 2026-04-22 11:19 | 54.86794 | -3.51031 | 26788 ft | 448 kts | 157° |
| 2026-04-22 11:19 | 54.83980 | -3.48654 | 27133 ft | 451 kts | 157° |
| 2026-04-22 11:19 | 54.81154 | -3.46263 | 27470 ft | 453 kts | 157° |
| 2026-04-22 11:20 | 54.78310 | -3.43859 | 27803 ft | 456 kts | 157° |
| 2026-04-22 11:20 | 54.75449 | -3.41447 | 28130 ft | 459 kts | 157° |
| 2026-04-22 11:20 | 54.72573 | -3.39026 | 28476 ft | 461 kts | 157° |
| 2026-04-22 11:20 | 54.69681 | -3.36598 | 28780 ft | 464 kts | 157° |
| 2026-04-22 11:21 | 54.66767 | -3.34158 | 29100 ft | 466 kts | 157° |
| 2026-04-22 11:21 | 54.63835 | -3.31707 | 29417 ft | 469 kts | 157° |
| 2026-04-22 11:21 | 54.60890 | -3.29247 | 29738 ft | 471 kts | 157° |
| 2026-04-22 11:21 | 54.57931 | -3.26778 | 30054 ft | 474 kts | 157° |
| 2026-04-22 11:22 | 54.54956 | -3.24301 | 30387 ft | 476 kts | 157° |
| 2026-04-22 11:22 | 54.51959 | -3.21816 | 30675 ft | 478 kts | 157° |
| 2026-04-22 11:22 | 54.48925 | -3.19301 | 30941 ft | 480 kts | 157° |
| 2026-04-22 11:22 | 54.45910 | -3.16802 | 31305 ft | 480 kts | 157° |
| 2026-04-22 11:23 | 54.42908 | -3.14316 | 31634 ft | 479 kts | 157° |
| 2026-04-22 11:23 | 54.40917 | -3.12671 | 31876 ft | 478 kts | 157° |
| 2026-04-22 11:23 | 54.37927 | -3.10211 | 32253 ft | 477 kts | 157° |
| 2026-04-22 11:23 | 54.34939 | -3.07752 | 32630 ft | 476 kts | 157° |
| 2026-04-22 11:24 | 54.31959 | -3.05295 | 33001 ft | 475 kts | 157° |
| 2026-04-22 11:24 | 54.28983 | -3.02842 | 33345 ft | 474 kts | 157° |
| 2026-04-22 11:24 | 54.26009 | -3.00397 | 33694 ft | 474 kts | 157° |
| 2026-04-22 11:24 | 54.23039 | -2.97964 | 34071 ft | 473 kts | 157° |
| 2026-04-22 11:25 | 54.20071 | -2.95541 | 34404 ft | 472 kts | 157° |
| 2026-04-22 11:25 | 54.17105 | -2.93131 | 34722 ft | 471 kts | 158° |
| 2026-04-22 11:25 | 54.14096 | -2.90776 | 35022 ft | 469 kts | 159° |
| 2026-04-22 11:25 | 54.11106 | -2.88567 | 35318 ft | 468 kts | 160° |
| 2026-04-22 11:26 | 54.08101 | -2.86425 | 35417 ft | 466 kts | 160° |
| 2026-04-22 11:26 | 54.02144 | -2.82235 | 35438 ft | 462 kts | 160° |
| 2026-04-22 11:27 | 53.96184 | -2.77958 | 35416 ft | 462 kts | 159° |
| 2026-04-22 11:27 | 53.90246 | -2.73633 | 35425 ft | 461 kts | 159° |
| 2026-04-22 11:28 | 53.84331 | -2.69351 | 35432 ft | 461 kts | 159° |
| 2026-04-22 11:28 | 53.78418 | -2.65109 | 35430 ft | 462 kts | 159° |
| 2026-04-22 11:29 | 53.72499 | -2.60878 | 35428 ft | 462 kts | 159° |
| 2026-04-22 11:29 | 53.66537 | -2.56632 | 35412 ft | 463 kts | 159° |
| 2026-04-22 11:30 | 53.60602 | -2.52409 | 35415 ft | 463 kts | 159° |
| 2026-04-22 11:30 | 53.54685 | -2.48200 | 35426 ft | 464 kts | 159° |
| 2026-04-22 11:31 | 53.48714 | -2.43965 | 35427 ft | 464 kts | 159° |
| 2026-04-22 11:31 | 53.42766 | -2.39780 | 35419 ft | 464 kts | 160° |
| 2026-04-22 11:32 | 53.36800 | -2.35597 | 35420 ft | 464 kts | 159° |
| 2026-04-22 11:32 | 53.30847 | -2.31421 | 35423 ft | 464 kts | 159° |
| 2026-04-22 11:33 | 53.24849 | -2.27230 | 35422 ft | 464 kts | 159° |
| 2026-04-22 11:33 | 53.18896 | -2.23075 | 35417 ft | 464 kts | 159° |
| 2026-04-22 11:34 | 53.12939 | -2.18937 | 35417 ft | 464 kts | 160° |
| 2026-04-22 11:34 | 53.06977 | -2.14819 | 35423 ft | 464 kts | 160° |
| 2026-04-22 11:35 | 53.01011 | -2.10706 | 35416 ft | 464 kts | 159° |
| 2026-04-22 11:35 | 52.95042 | -2.06587 | 35415 ft | 464 kts | 159° |
| 2026-04-22 11:36 | 52.89078 | -2.02489 | 35412 ft | 464 kts | 159° |
| 2026-04-22 11:36 | 52.83106 | -1.98399 | 35409 ft | 465 kts | 159° |
| 2026-04-22 11:37 | 52.77122 | -1.94316 | 35410 ft | 465 kts | 159° |
| 2026-04-22 11:37 | 52.71122 | -1.90244 | 35392 ft | 465 kts | 159° |
| 2026-04-22 11:38 | 52.65101 | -1.86161 | 35396 ft | 465 kts | 159° |
| 2026-04-22 11:38 | 52.56126 | -1.80091 | 35401 ft | 465 kts | 159° |
| 2026-04-22 11:39 | 52.50139 | -1.76062 | 35395 ft | 465 kts | 160° |
| 2026-04-22 11:39 | 52.44149 | -1.72045 | 35399 ft | 465 kts | 160° |
| 2026-04-22 11:40 | 52.38164 | -1.68041 | 35401 ft | 465 kts | 160° |
| 2026-04-22 11:40 | 52.32203 | -1.63920 | 35396 ft | 465 kts | 157° |
| 2026-04-22 11:41 | 52.26366 | -1.59345 | 35424 ft | 466 kts | 155° |
| 2026-04-22 11:41 | 52.20557 | -1.54665 | 35436 ft | 466 kts | 156° |
| 2026-04-22 11:42 | 52.14714 | -1.50090 | 35440 ft | 466 kts | 156° |
| 2026-04-22 11:42 | 52.08853 | -1.45598 | 35441 ft | 466 kts | 156° |
| 2026-04-22 11:43 | 52.02985 | -1.41129 | 35332 ft | 466 kts | 156° |
| 2026-04-22 11:43 | 51.97074 | -1.36622 | 35331 ft | 466 kts | 156° |
| 2026-04-22 11:44 | 51.91207 | -1.32138 | 35335 ft | 467 kts | 156° |
| 2026-04-22 11:44 | 51.85334 | -1.27657 | 35338 ft | 467 kts | 156° |
| 2026-04-22 11:45 | 51.79459 | -1.23194 | 35326 ft | 467 kts | 157° |
| 2026-04-22 11:45 | 51.73580 | -1.18755 | 35339 ft | 466 kts | 157° |
| 2026-04-22 11:46 | 51.67707 | -1.14334 | 35316 ft | 466 kts | 157° |
| 2026-04-22 11:46 | 51.61835 | -1.09928 | 35317 ft | 465 kts | 157° |
| 2026-04-22 11:47 | 51.55976 | -1.05541 | 35308 ft | 464 kts | 157° |
| 2026-04-22 11:47 | 51.50080 | -1.01130 | 35310 ft | 464 kts | 158° |
| 2026-04-22 11:48 | 51.44232 | -0.96777 | 35310 ft | 464 kts | 158° |
| 2026-04-22 11:48 | 51.38374 | -0.92420 | 35315 ft | 464 kts | 157° |
| 2026-04-22 11:49 | 51.32506 | -0.88064 | 35284 ft | 465 kts | 157° |
| 2026-04-22 11:49 | 51.26631 | -0.83716 | 35292 ft | 466 kts | 158° |
| 2026-04-22 11:50 | 51.20743 | -0.79389 | 35298 ft | 466 kts | 158° |
| 2026-04-22 11:50 | 51.14849 | -0.75071 | 35305 ft | 466 kts | 158° |
| 2026-04-22 11:51 | 51.09906 | -0.71448 | 35307 ft | 467 kts | 158° |
| 2026-04-22 11:51 | 51.04012 | -0.67130 | 35310 ft | 467 kts | 158° |
| 2026-04-22 11:52 | 50.98103 | -0.62815 | 35298 ft | 467 kts | 158° |
| 2026-04-22 11:52 | 50.92203 | -0.58533 | 35290 ft | 467 kts | 158° |
| 2026-04-22 11:53 | 50.86301 | -0.54258 | 35283 ft | 466 kts | 158° |
| 2026-04-22 11:53 | 50.80406 | -0.49984 | 35281 ft | 466 kts | 158° |
| 2026-04-22 11:54 | 50.74499 | -0.45723 | 35279 ft | 467 kts | 158° |
| 2026-04-22 11:54 | 50.68586 | -0.41480 | 35296 ft | 467 kts | 158° |
| 2026-04-22 11:55 | 50.62666 | -0.37246 | 35284 ft | 467 kts | 158° |
| 2026-04-22 11:55 | 50.56717 | -0.32992 | 35297 ft | 467 kts | 158° |
| 2026-04-22 11:56 | 50.50804 | -0.28771 | 35295 ft | 466 kts | 158° |
| 2026-04-22 11:56 | 50.44899 | -0.24568 | 35290 ft | 466 kts | 158° |
| 2026-04-22 11:57 | 50.38987 | -0.20382 | 35276 ft | 466 kts | 159° |
| 2026-04-22 11:57 | 50.33061 | -0.16200 | 35273 ft | 467 kts | 159° |
| 2026-04-22 11:58 | 50.27128 | -0.12018 | 35261 ft | 468 kts | 159° |
| 2026-04-22 11:58 | 50.21154 | -0.07817 | 35268 ft | 468 kts | 159° |
| 2026-04-22 11:59 | 50.15215 | -0.03658 | 35259 ft | 468 kts | 159° |
| 2026-04-22 11:59 | 50.09215 | 0.00259 | 35258 ft | 465 kts | 167° |
| 2026-04-22 12:00 | 50.02953 | 0.02772 | 35239 ft | 465 kts | 169° |
| 2026-04-22 12:00 | 49.96673 | 0.05240 | 35218 ft | 467 kts | 170° |
| 2026-04-22 12:01 | 49.90377 | 0.07722 | 35238 ft | 467 kts | 170° |
| 2026-04-22 12:01 | 49.84065 | 0.10194 | 35227 ft | 468 kts | 170° |
| 2026-04-22 12:02 | 49.77758 | 0.12655 | 35214 ft | 468 kts | 170° |
| 2026-04-22 12:02 | 49.71446 | 0.15123 | 35211 ft | 468 kts | 170° |
| 2026-04-22 12:03 | 49.65130 | 0.17602 | 35215 ft | 468 kts | 170° |
| 2026-04-22 12:03 | 49.58837 | 0.20144 | 35214 ft | 468 kts | 169° |
| 2026-04-22 12:04 | 49.52501 | 0.22712 | 35211 ft | 467 kts | 169° |
| 2026-04-22 12:04 | 49.46209 | 0.25237 | 35204 ft | 467 kts | 170° |
| 2026-04-22 12:05 | 49.39928 | 0.27753 | 35208 ft | 467 kts | 170° |
| 2026-04-22 12:05 | 49.33621 | 0.30270 | 35210 ft | 466 kts | 170° |
| 2026-04-22 12:06 | 49.27363 | 0.32780 | 35204 ft | 466 kts | 169° |
| 2026-04-22 12:06 | 49.21103 | 0.35413 | 35194 ft | 466 kts | 169° |
| 2026-04-22 12:07 | 49.14856 | 0.38089 | 35190 ft | 466 kts | 169° |
| 2026-04-22 12:07 | 49.08617 | 0.40735 | 35190 ft | 466 kts | 169° |
| 2026-04-22 12:08 | 49.02368 | 0.43354 | 35176 ft | 465 kts | 169° |
| 2026-04-22 12:08 | 48.96125 | 0.45949 | 35171 ft | 466 kts | 169° |
| 2026-04-22 12:09 | 48.89858 | 0.48537 | 35155 ft | 467 kts | 169° |
| 2026-04-22 12:09 | 48.83536 | 0.51158 | 35159 ft | 468 kts | 169° |
| 2026-04-22 12:10 | 48.77251 | 0.53754 | 35159 ft | 468 kts | 169° |
| 2026-04-22 12:10 | 48.70951 | 0.56258 | 35161 ft | 468 kts | 170° |
| 2026-04-22 12:11 | 48.64636 | 0.58703 | 35141 ft | 468 kts | 170° |
| 2026-04-22 12:11 | 48.58318 | 0.61146 | 35152 ft | 468 kts | 170° |
| 2026-04-22 12:12 | 48.51963 | 0.63627 | 35156 ft | 469 kts | 170° |
| 2026-04-22 12:12 | 48.45653 | 0.66159 | 35151 ft | 469 kts | 169° |
| 2026-04-22 12:13 | 48.39354 | 0.68751 | 35151 ft | 469 kts | 169° |
| 2026-04-22 12:13 | 48.33063 | 0.71323 | 35154 ft | 469 kts | 169° |
| 2026-04-22 12:14 | 48.26763 | 0.73864 | 35152 ft | 469 kts | 169° |
| 2026-04-22 12:14 | 48.20425 | 0.76399 | 35138 ft | 468 kts | 169° |
| 2026-04-22 12:15 | 48.14127 | 0.78861 | 35138 ft | 467 kts | 169° |
| 2026-04-22 12:15 | 48.07836 | 0.81322 | 35138 ft | 467 kts | 169° |
| 2026-04-22 12:16 | 48.01540 | 0.83776 | 35133 ft | 467 kts | 169° |
| 2026-04-22 12:16 | 47.95211 | 0.86245 | 35124 ft | 468 kts | 169° |
| 2026-04-22 12:17 | 47.88907 | 0.88713 | 35115 ft | 469 kts | 169° |
| 2026-04-22 12:17 | 47.82590 | 0.91164 | 35113 ft | 469 kts | 169° |
| 2026-04-22 12:18 | 47.76263 | 0.93616 | 35091 ft | 470 kts | 169° |
| 2026-04-22 12:18 | 47.71003 | 0.95649 | 35089 ft | 471 kts | 169° |
| 2026-04-22 12:19 | 47.64657 | 0.98095 | 35094 ft | 471 kts | 169° |
| 2026-04-22 12:19 | 47.58303 | 1.00537 | 35085 ft | 472 kts | 169° |
| 2026-04-22 12:20 | 47.51905 | 1.02992 | 35083 ft | 472 kts | 169° |
| 2026-04-22 12:20 | 47.45551 | 1.05424 | 35089 ft | 472 kts | 171° |
| 2026-04-22 12:21 | 47.39110 | 1.06380 | 35092 ft | 461 kts | 186° |
| 2026-04-22 12:21 | 47.32693 | 1.06205 | 35084 ft | 462 kts | 186° |
| 2026-04-22 12:22 | 47.26265 | 1.06054 | 35087 ft | 462 kts | 186° |
| 2026-04-22 12:22 | 47.19846 | 1.05918 | 35090 ft | 462 kts | 186° |
| 2026-04-22 12:23 | 47.13426 | 1.05771 | 35086 ft | 461 kts | 186° |
| 2026-04-22 12:23 | 47.07008 | 1.05605 | 35088 ft | 461 kts | 186° |
| 2026-04-22 12:24 | 47.00596 | 1.05452 | 35087 ft | 461 kts | 186° |
| 2026-04-22 12:24 | 46.94184 | 1.05200 | 35080 ft | 460 kts | 186° |
| 2026-04-22 12:25 | 46.87778 | 1.04889 | 35088 ft | 460 kts | 186° |
| 2026-04-22 12:25 | 46.81385 | 1.04591 | 35082 ft | 460 kts | 186° |
| 2026-04-22 12:26 | 46.74939 | 1.04323 | 35087 ft | 460 kts | 186° |
| 2026-04-22 12:26 | 46.68542 | 1.04054 | 35079 ft | 460 kts | 186° |
| 2026-04-22 12:27 | 46.62146 | 1.03785 | 35080 ft | 460 kts | 186° |
| 2026-04-22 12:27 | 46.55748 | 1.03517 | 35054 ft | 460 kts | 186° |
| 2026-04-22 12:28 | 46.49347 | 1.04090 | 35062 ft | 467 kts | 171° |
| 2026-04-22 12:28 | 46.43005 | 1.06213 | 35055 ft | 468 kts | 171° |
| 2026-04-22 12:29 | 46.36659 | 1.08343 | 35054 ft | 468 kts | 171° |
| 2026-04-22 12:29 | 46.30316 | 1.10467 | 35044 ft | 468 kts | 171° |
| 2026-04-22 12:30 | 46.20797 | 1.13617 | 35044 ft | 468 kts | 171° |
| 2026-04-22 12:31 | 46.14453 | 1.15708 | 35034 ft | 468 kts | 171° |
| 2026-04-22 12:31 | 46.08107 | 1.17800 | 35036 ft | 468 kts | 171° |
| 2026-04-22 12:32 | 46.01761 | 1.19907 | 35042 ft | 468 kts | 171° |
| 2026-04-22 12:32 | 45.92182 | 1.23063 | 35027 ft | 469 kts | 171° |
| 2026-04-22 12:33 | 45.85808 | 1.25149 | 35034 ft | 470 kts | 171° |
| 2026-04-22 12:33 | 45.79437 | 1.27226 | 35038 ft | 470 kts | 171° |
| 2026-04-22 12:34 | 45.73050 | 1.29307 | 35036 ft | 471 kts | 171° |
| 2026-04-22 12:34 | 45.66660 | 1.31389 | 35029 ft | 471 kts | 171° |
| 2026-04-22 12:35 | 45.60285 | 1.33474 | 35024 ft | 470 kts | 171° |
| 2026-04-22 12:35 | 45.53866 | 1.35555 | 35014 ft | 470 kts | 171° |
| 2026-04-22 12:36 | 45.47493 | 1.37612 | 35017 ft | 469 kts | 171° |
| 2026-04-22 12:36 | 45.41129 | 1.39659 | 35019 ft | 469 kts | 171° |
| 2026-04-22 12:37 | 45.34769 | 1.41693 | 35014 ft | 469 kts | 171° |
| 2026-04-22 12:37 | 45.28411 | 1.43734 | 35017 ft | 469 kts | 171° |
| 2026-04-22 12:38 | 45.22053 | 1.45780 | 35020 ft | 469 kts | 171° |
| 2026-04-22 12:38 | 45.15692 | 1.47818 | 35017 ft | 468 kts | 171° |
| 2026-04-22 12:39 | 45.06161 | 1.50854 | 35025 ft | 468 kts | 171° |
| 2026-04-22 12:40 | 44.99773 | 1.52875 | 35010 ft | 468 kts | 171° |
| 2026-04-22 12:40 | 44.93418 | 1.54878 | 34991 ft | 468 kts | 171° |
| 2026-04-22 12:41 | 44.87053 | 1.56892 | 34985 ft | 469 kts | 171° |
| 2026-04-22 12:41 | 44.80694 | 1.58906 | 34985 ft | 469 kts | 171° |
| 2026-04-22 12:42 | 44.74328 | 1.60924 | 34985 ft | 469 kts | 171° |
| 2026-04-22 12:42 | 44.67964 | 1.62927 | 34988 ft | 469 kts | 171° |
| 2026-04-22 12:43 | 44.61588 | 1.64921 | 34984 ft | 469 kts | 171° |
| 2026-04-22 12:43 | 44.55227 | 1.66905 | 34980 ft | 469 kts | 171° |
| 2026-04-22 12:44 | 44.48868 | 1.68890 | 34985 ft | 469 kts | 171° |
| 2026-04-22 12:44 | 44.42498 | 1.70875 | 34999 ft | 468 kts | 171° |
| 2026-04-22 12:45 | 44.36137 | 1.72846 | 34979 ft | 468 kts | 171° |
| 2026-04-22 12:45 | 44.29775 | 1.74814 | 34993 ft | 468 kts | 171° |
| 2026-04-22 12:46 | 44.23388 | 1.76463 | 34980 ft | 466 kts | 174° |
| 2026-04-22 12:46 | 44.16973 | 1.77758 | 34989 ft | 466 kts | 175° |
| 2026-04-22 12:47 | 44.10512 | 1.79063 | 34992 ft | 466 kts | 175° |
| 2026-04-22 12:47 | 44.04106 | 1.80468 | 34991 ft | 466 kts | 174° |
| 2026-04-22 12:48 | 43.97707 | 1.81910 | 34981 ft | 466 kts | 174° |
| 2026-04-22 12:48 | 43.91290 | 1.83079 | 34985 ft | 464 kts | 179° |
| 2026-04-22 12:49 | 43.84854 | 1.83640 | 34990 ft | 463 kts | 181° |
| 2026-04-22 12:49 | 43.78429 | 1.84065 | 34982 ft | 463 kts | 180° |
| 2026-04-22 12:50 | 43.73042 | 1.84531 | 34985 ft | 463 kts | 180° |
| 2026-04-22 12:50 | 43.66616 | 1.85180 | 34988 ft | 463 kts | 179° |
| 2026-04-22 12:51 | 43.60191 | 1.85839 | 34980 ft | 463 kts | 179° |
| 2026-04-22 12:51 | 43.53729 | 1.86478 | 34995 ft | 462 kts | 180° |
| 2026-04-22 12:52 | 43.47350 | 1.87081 | 35001 ft | 462 kts | 180° |
| 2026-04-22 12:52 | 43.40895 | 1.87686 | 35001 ft | 462 kts | 180° |
| 2026-04-22 12:53 | 43.34489 | 1.88295 | 35007 ft | 462 kts | 179° |
| 2026-04-22 12:53 | 43.28085 | 1.88913 | 35016 ft | 461 kts | 179° |
| 2026-04-22 12:54 | 43.21675 | 1.89528 | 34945 ft | 465 kts | 179° |
| 2026-04-22 12:54 | 43.18443 | 1.89836 | 34687 ft | 464 kts | 179° |
| 2026-04-22 12:54 | 43.15226 | 1.90141 | 34202 ft | 465 kts | 179° |
| 2026-04-22 12:54 | 43.12003 | 1.90450 | 33640 ft | 463 kts | 179° |
| 2026-04-22 12:55 | 43.08800 | 1.90762 | 33132 ft | 460 kts | 179° |
| 2026-04-22 12:55 | 43.05580 | 1.91075 | 32611 ft | 457 kts | 179° |
| 2026-04-22 12:55 | 43.02412 | 1.91378 | 32092 ft | 454 kts | 179° |
| 2026-04-22 12:55 | 42.99273 | 1.91674 | 31576 ft | 451 kts | 179° |
| 2026-04-22 12:56 | 42.96154 | 1.91966 | 31071 ft | 448 kts | 179° |
| 2026-04-22 12:56 | 42.93047 | 1.92256 | 30560 ft | 446 kts | 179° |
| 2026-04-22 12:56 | 42.89954 | 1.92544 | 30043 ft | 444 kts | 179° |
| 2026-04-22 12:56 | 42.86885 | 1.92833 | 29502 ft | 441 kts | 179° |
| 2026-04-22 12:57 | 42.83847 | 1.93122 | 29010 ft | 436 kts | 179° |
| 2026-04-22 12:57 | 42.80835 | 1.93409 | 28531 ft | 431 kts | 179° |
| 2026-04-22 12:57 | 42.77861 | 1.93691 | 28046 ft | 426 kts | 179° |
| 2026-04-22 12:57 | 42.74918 | 1.93966 | 27601 ft | 422 kts | 179° |
| 2026-04-22 12:58 | 42.71975 | 1.94237 | 27138 ft | 418 kts | 179° |
| 2026-04-22 12:58 | 42.69072 | 1.94505 | 26723 ft | 414 kts | 180° |
| 2026-04-22 12:58 | 42.66211 | 1.94807 | 26285 ft | 411 kts | 178° |
| 2026-04-22 12:58 | 42.63374 | 1.95268 | 25865 ft | 409 kts | 175° |
| 2026-04-22 12:59 | 42.60561 | 1.95846 | 25444 ft | 408 kts | 174° |
| 2026-04-22 12:59 | 42.57762 | 1.96477 | 25023 ft | 406 kts | 173° |
| 2026-04-22 12:59 | 42.54981 | 1.97111 | 24601 ft | 405 kts | 174° |
| 2026-04-22 12:59 | 42.52207 | 1.97724 | 24181 ft | 403 kts | 174° |
| 2026-04-22 13:00 | 42.49439 | 1.98311 | 23732 ft | 402 kts | 174° |
| 2026-04-22 13:00 | 42.46647 | 1.98883 | 23262 ft | 400 kts | 174° |
| 2026-04-22 13:00 | 42.43920 | 1.99428 | 23004 ft | 392 kts | 175° |
| 2026-04-22 13:00 | 42.41247 | 1.99957 | 23022 ft | 388 kts | 175° |
| 2026-04-22 13:01 | 42.38578 | 2.00531 | 23005 ft | 389 kts | 171° |
| 2026-04-22 13:01 | 42.35973 | 2.01631 | 22275 ft | 401 kts | 158° |
| 2026-04-22 13:01 | 42.33562 | 2.03539 | 21865 ft | 399 kts | 148° |
| 2026-04-22 13:01 | 42.31270 | 2.05603 | 21498 ft | 393 kts | 149° |
| 2026-04-22 13:02 | 42.28992 | 2.07609 | 21070 ft | 390 kts | 149° |
| 2026-04-22 13:02 | 42.26719 | 2.09580 | 20627 ft | 387 kts | 150° |
| 2026-04-22 13:02 | 42.24453 | 2.11531 | 20164 ft | 384 kts | 150° |
| 2026-04-22 13:02 | 42.22181 | 2.13487 | 19735 ft | 381 kts | 150° |
| 2026-04-22 13:03 | 42.19953 | 2.15410 | 19322 ft | 379 kts | 150° |
| 2026-04-22 13:03 | 42.17746 | 2.17323 | 18895 ft | 376 kts | 150° |
| 2026-04-22 13:03 | 42.15556 | 2.19223 | 18461 ft | 373 kts | 150° |
| 2026-04-22 13:03 | 42.13386 | 2.21107 | 17989 ft | 370 kts | 150° |
| 2026-04-22 13:04 | 42.11200 | 2.23000 | 17498 ft | 368 kts | 150° |
| 2026-04-22 13:04 | 42.09081 | 2.24831 | 17046 ft | 365 kts | 150° |
| 2026-04-22 13:04 | 42.06927 | 2.26690 | 16600 ft | 362 kts | 151° |
| 2026-04-22 13:04 | 42.04816 | 2.28514 | 16179 ft | 359 kts | 150° |
| 2026-04-22 13:05 | 42.02716 | 2.30327 | 15718 ft | 357 kts | 150° |
| 2026-04-22 13:05 | 42.00635 | 2.32121 | 15295 ft | 355 kts | 151° |
| 2026-04-22 13:05 | 41.98562 | 2.33905 | 14888 ft | 352 kts | 151° |
| 2026-04-22 13:05 | 41.96507 | 2.35673 | 14485 ft | 350 kts | 151° |
| 2026-04-22 13:06 | 41.94465 | 2.37428 | 14069 ft | 347 kts | 152° |
| 2026-04-22 13:06 | 41.92444 | 2.39161 | 13640 ft | 344 kts | 152° |
| 2026-04-22 13:06 | 41.90426 | 2.40890 | 13173 ft | 343 kts | 152° |
| 2026-04-22 13:06 | 41.88418 | 2.42609 | 12725 ft | 342 kts | 152° |
| 2026-04-22 13:07 | 41.86413 | 2.44325 | 12295 ft | 340 kts | 152° |
| 2026-04-22 13:07 | 41.84427 | 2.46025 | 11850 ft | 339 kts | 152° |
| 2026-04-22 13:07 | 41.82422 | 2.47742 | 11416 ft | 338 kts | 152° |
| 2026-04-22 13:07 | 41.80442 | 2.49435 | 11042 ft | 334 kts | 152° |
| 2026-04-22 13:08 | 41.78525 | 2.51080 | 10834 ft | 323 kts | 152° |
| 2026-04-22 13:08 | 41.76639 | 2.52698 | 10499 ft | 320 kts | 152° |
| 2026-04-22 13:08 | 41.74779 | 2.54292 | 10151 ft | 318 kts | 152° |
| 2026-04-22 13:08 | 41.72917 | 2.55882 | 9772 ft | 317 kts | 151° |
| 2026-04-22 13:09 | 41.71063 | 2.57462 | 9407 ft | 315 kts | 151° |
| 2026-04-22 13:09 | 41.69224 | 2.59028 | 9061 ft | 313 kts | 151° |
| 2026-04-22 13:09 | 41.67389 | 2.60587 | 8710 ft | 311 kts | 151° |
| 2026-04-22 13:09 | 41.65568 | 2.62139 | 8362 ft | 309 kts | 151° |
| 2026-04-22 13:10 | 41.63761 | 2.63680 | 8011 ft | 307 kts | 151° |
| 2026-04-22 13:10 | 41.61864 | 2.64881 | 7675 ft | 296 kts | 172° |
| 2026-04-22 13:10 | 41.59836 | 2.65125 | 7276 ft | 292 kts | 182° |
| 2026-04-22 13:10 | 41.57812 | 2.65204 | 6891 ft | 291 kts | 182° |
| 2026-04-22 13:11 | 41.55794 | 2.65286 | 6583 ft | 289 kts | 182° |
| 2026-04-22 13:11 | 41.53762 | 2.65374 | 6337 ft | 283 kts | 182° |
| 2026-04-22 13:11 | 41.51840 | 2.65464 | 6249 ft | 271 kts | 181° |
| 2026-04-22 13:11 | 41.50046 | 2.65145 | 6144 ft | 252 kts | 207° |
| 2026-04-22 13:12 | 41.48719 | 2.63784 | 5972 ft | 235 kts | 239° |
| 2026-04-22 13:12 | 41.48007 | 2.61886 | 5926 ft | 228 kts | 249° |
| 2026-04-22 13:12 | 41.47374 | 2.59952 | 5868 ft | 228 kts | 249° |
| 2026-04-22 13:12 | 41.46738 | 2.58016 | 5818 ft | 228 kts | 248° |
| 2026-04-22 13:13 | 41.46092 | 2.56083 | 5594 ft | 227 kts | 248° |
| 2026-04-22 13:13 | 41.45445 | 2.54168 | 5396 ft | 227 kts | 248° |
| 2026-04-22 13:13 | 41.44797 | 2.52262 | 5205 ft | 226 kts | 248° |
| 2026-04-22 13:13 | 41.44148 | 2.50348 | 4994 ft | 226 kts | 248° |
| 2026-04-22 13:14 | 41.43713 | 2.49060 | 4883 ft | 225 kts | 248° |
| 2026-04-22 13:14 | 41.43070 | 2.47159 | 4677 ft | 225 kts | 248° |
| 2026-04-22 13:14 | 41.42428 | 2.45257 | 4481 ft | 225 kts | 248° |
| 2026-04-22 13:14 | 41.41787 | 2.43360 | 4279 ft | 224 kts | 247° |
| 2026-04-22 13:15 | 41.41141 | 2.41450 | 4087 ft | 223 kts | 247° |
| 2026-04-22 13:15 | 41.40502 | 2.39563 | 3899 ft | 223 kts | 247° |
| 2026-04-22 13:15 | 41.39863 | 2.37678 | 3707 ft | 223 kts | 247° |
| 2026-04-22 13:15 | 41.39226 | 2.35800 | 3516 ft | 222 kts | 246° |
| 2026-04-22 13:16 | 41.38591 | 2.33928 | 3342 ft | 222 kts | 246° |
| 2026-04-22 13:16 | 41.37958 | 2.32060 | 3132 ft | 221 kts | 246° |
| 2026-04-22 13:16 | 41.37326 | 2.30201 | 2933 ft | 220 kts | 246° |
| 2026-04-22 13:16 | 41.36695 | 2.28345 | 2743 ft | 220 kts | 245° |
| 2026-04-22 13:17 | 41.36061 | 2.26479 | 2559 ft | 223 kts | 245° |
| 2026-04-22 13:17 | 41.35433 | 2.24632 | 2322 ft | 216 kts | 244° |
| 2026-04-22 13:17 | 41.34823 | 2.22841 | 2042 ft | 210 kts | 244° |